sensor_id;sensor_type;location;lat;lon;timestamp;P1;durP1;ratioP1;P2;durP2;ratioP2
6519;SDS011;3293;51.690;5.982;2023-04-26T00:03:40;14.47;;;8.80;;
6519;SDS011;3293;51.690;5.982;2023-04-26T00:08:40;12.70;;;8.40;;
6519;SDS011;3293;51.690;5.982;2023-04-26T00:13:41;14.27;;;7.33;;
6519;SDS011;3293;51.690;5.982;2023-04-26T00:18:41;14.47;;;8.33;;
6519;SDS011;3293;51.690;5.982;2023-04-26T00:23:41;11.60;;;7.27;;
6519;SDS011;3293;51.690;5.982;2023-04-26T00:28:41;14.17;;;8.90;;
6519;SDS011;3293;51.690;5.982;2023-04-26T00:33:41;12.77;;;8.60;;
6519;SDS011;3293;51.690;5.982;2023-04-26T00:38:42;14.30;;;8.63;;
6519;SDS011;3293;51.690;5.982;2023-04-26T00:43:42;17.10;;;8.73;;
6519;SDS011;3293;51.690;5.982;2023-04-26T00:48:43;14.30;;;8.83;;
6519;SDS011;3293;51.690;5.982;2023-04-26T00:53:43;15.87;;;8.50;;
6519;SDS011;3293;51.690;5.982;2023-04-26T00:58:43;13.40;;;9.27;;
6519;SDS011;3293;51.690;5.982;2023-04-26T01:03:44;15.13;;;9.07;;
6519;SDS011;3293;51.690;5.982;2023-04-26T01:08:45;13.77;;;10.13;;
6519;SDS011;3293;51.690;5.982;2023-04-26T01:13:45;16.00;;;10.07;;
6519;SDS011;3293;51.690;5.982;2023-04-26T01:18:52;16.57;;;9.40;;
6519;SDS011;3293;51.690;5.982;2023-04-26T01:23:52;13.43;;;9.37;;
6519;SDS011;3293;51.690;5.982;2023-04-26T01:28:52;15.23;;;9.33;;
6519;SDS011;3293;51.690;5.982;2023-04-26T01:33:52;15.40;;;9.73;;
6519;SDS011;3293;51.690;5.982;2023-04-26T01:38:52;15.97;;;9.77;;
6519;SDS011;3293;51.690;5.982;2023-04-26T01:43:52;15.73;;;9.33;;
6519;SDS011;3293;51.690;5.982;2023-04-26T01:48:52;11.83;;;9.00;;
6519;SDS011;3293;51.690;5.982;2023-04-26T01:53:52;15.47;;;10.57;;
6519;SDS011;3293;51.690;5.982;2023-04-26T01:58:52;16.57;;;10.70;;
6519;SDS011;3293;51.690;5.982;2023-04-26T02:03:54;17.40;;;10.40;;
6519;SDS011;3293;51.690;5.982;2023-04-26T02:08:55;15.17;;;10.37;;
6519;SDS011;3293;51.690;5.982;2023-04-26T02:13:55;18.83;;;11.60;;
6519;SDS011;3293;51.690;5.982;2023-04-26T02:18:55;17.93;;;10.87;;
6519;SDS011;3293;51.690;5.982;2023-04-26T02:23:55;18.37;;;10.40;;
6519;SDS011;3293;51.690;5.982;2023-04-26T02:28:55;17.73;;;10.77;;
6519;SDS011;3293;51.690;5.982;2023-04-26T02:33:55;16.40;;;11.20;;
6519;SDS011;3293;51.690;5.982;2023-04-26T02:38:55;17.07;;;11.07;;
6519;SDS011;3293;51.690;5.982;2023-04-26T02:43:55;16.60;;;10.43;;
6519;SDS011;3293;51.690;5.982;2023-04-26T02:48:55;21.97;;;10.73;;
6519;SDS011;3293;51.690;5.982;2023-04-26T02:53:55;19.03;;;11.07;;
6519;SDS011;3293;51.690;5.982;2023-04-26T02:58:54;18.83;;;11.17;;
6519;SDS011;3293;51.690;5.982;2023-04-26T03:03:54;17.27;;;11.07;;
6519;SDS011;3293;51.690;5.982;2023-04-26T03:08:54;23.00;;;11.60;;
6519;SDS011;3293;51.690;5.982;2023-04-26T03:13:54;19.63;;;11.23;;
6519;SDS011;3293;51.690;5.982;2023-04-26T03:18:54;18.17;;;11.40;;
6519;SDS011;3293;51.690;5.982;2023-04-26T03:23:54;19.27;;;11.00;;
6519;SDS011;3293;51.690;5.982;2023-04-26T03:28:54;17.13;;;11.30;;
6519;SDS011;3293;51.690;5.982;2023-04-26T03:33:55;19.87;;;12.30;;
6519;SDS011;3293;51.690;5.982;2023-04-26T03:38:54;20.27;;;11.63;;
6519;SDS011;3293;51.690;5.982;2023-04-26T03:43:54;19.17;;;12.10;;
6519;SDS011;3293;51.690;5.982;2023-04-26T03:48:55;18.73;;;11.93;;
6519;SDS011;3293;51.690;5.982;2023-04-26T03:53:55;17.60;;;12.37;;
6519;SDS011;3293;51.690;5.982;2023-04-26T03:58:56;21.07;;;11.90;;
6519;SDS011;3293;51.690;5.982;2023-04-26T04:03:56;20.67;;;12.10;;
6519;SDS011;3293;51.690;5.982;2023-04-26T04:08:56;21.47;;;12.40;;
6519;SDS011;3293;51.690;5.982;2023-04-26T04:13:56;20.87;;;12.77;;
6519;SDS011;3293;51.690;5.982;2023-04-26T04:18:56;20.90;;;12.90;;
6519;SDS011;3293;51.690;5.982;2023-04-26T04:23:56;25.27;;;12.10;;
6519;SDS011;3293;51.690;5.982;2023-04-26T04:28:56;21.30;;;12.97;;
6519;SDS011;3293;51.690;5.982;2023-04-26T04:33:58;22.10;;;13.23;;
6519;SDS011;3293;51.690;5.982;2023-04-26T04:38:59;23.63;;;13.37;;
6519;SDS011;3293;51.690;5.982;2023-04-26T04:43:58;22.30;;;13.63;;
6519;SDS011;3293;51.690;5.982;2023-04-26T04:48:59;21.47;;;12.70;;
6519;SDS011;3293;51.690;5.982;2023-04-26T04:54:08;24.97;;;12.90;;
6519;SDS011;3293;51.690;5.982;2023-04-26T04:59:14;20.63;;;13.03;;
6519;SDS011;3293;51.690;5.982;2023-04-26T05:04:14;21.27;;;14.20;;
6519;SDS011;3293;51.690;5.982;2023-04-26T05:09:15;26.37;;;14.13;;
6519;SDS011;3293;51.690;5.982;2023-04-26T05:14:16;23.07;;;12.63;;
6519;SDS011;3293;51.690;5.982;2023-04-26T05:19:16;22.67;;;12.57;;
6519;SDS011;3293;51.690;5.982;2023-04-26T05:24:16;22.47;;;13.10;;
6519;SDS011;3293;51.690;5.982;2023-04-26T05:29:16;22.27;;;12.07;;
6519;SDS011;3293;51.690;5.982;2023-04-26T05:34:17;20.90;;;12.77;;
6519;SDS011;3293;51.690;5.982;2023-04-26T05:39:17;23.53;;;13.13;;
6519;SDS011;3293;51.690;5.982;2023-04-26T05:44:19;20.87;;;11.03;;
6519;SDS011;3293;51.690;5.982;2023-04-26T05:49:19;16.77;;;10.60;;
6519;SDS011;3293;51.690;5.982;2023-04-26T05:54:19;16.03;;;11.10;;
6519;SDS011;3293;51.690;5.982;2023-04-26T05:59:20;18.00;;;10.00;;
6519;SDS011;3293;51.690;5.982;2023-04-26T06:04:20;13.37;;;10.20;;
6519;SDS011;3293;51.690;5.982;2023-04-26T06:09:20;21.57;;;9.67;;
6519;SDS011;3293;51.690;5.982;2023-04-26T06:14:20;15.07;;;9.70;;
6519;SDS011;3293;51.690;5.982;2023-04-26T06:19:20;14.10;;;9.17;;
6519;SDS011;3293;51.690;5.982;2023-04-26T06:24:21;16.10;;;9.70;;
6519;SDS011;3293;51.690;5.982;2023-04-26T06:29:23;16.07;;;11.00;;
6519;SDS011;3293;51.690;5.982;2023-04-26T06:34:23;15.70;;;9.77;;
6519;SDS011;3293;51.690;5.982;2023-04-26T06:39:23;13.50;;;9.47;;
6519;SDS011;3293;51.690;5.982;2023-04-26T06:44:23;14.17;;;9.10;;
6519;SDS011;3293;51.690;5.982;2023-04-26T06:49:23;12.63;;;8.97;;
6519;SDS011;3293;51.690;5.982;2023-04-26T06:54:27;11.35;;;8.05;;
6519;SDS011;3293;51.690;5.982;2023-04-26T06:59:27;11.15;;;7.28;;
6519;SDS011;3293;51.690;5.982;2023-04-26T07:04:27;12.93;;;7.38;;
6519;SDS011;3293;51.690;5.982;2023-04-26T07:09:27;11.70;;;7.47;;
6519;SDS011;3293;51.690;5.982;2023-04-26T07:14:27;14.07;;;7.60;;
6519;SDS011;3293;51.690;5.982;2023-04-26T07:19:28;9.83;;;7.07;;
6519;SDS011;3293;51.690;5.982;2023-04-26T07:24:28;11.40;;;6.80;;
6519;SDS011;3293;51.690;5.982;2023-04-26T07:29:28;12.70;;;7.03;;
6519;SDS011;3293;51.690;5.982;2023-04-26T07:34:28;10.57;;;6.03;;
6519;SDS011;3293;51.690;5.982;2023-04-26T07:39:28;10.53;;;6.13;;
6519;SDS011;3293;51.690;5.982;2023-04-26T07:44:29;10.47;;;5.77;;
6519;SDS011;3293;51.690;5.982;2023-04-26T07:49:29;9.60;;;5.60;;
6519;SDS011;3293;51.690;5.982;2023-04-26T07:54:30;12.43;;;5.70;;
6519;SDS011;3293;51.690;5.982;2023-04-26T07:59:30;6.83;;;4.90;;
6519;SDS011;3293;51.690;5.982;2023-04-26T08:04:31;9.03;;;5.17;;
6519;SDS011;3293;51.690;5.982;2023-04-26T08:09:32;7.10;;;5.03;;
6519;SDS011;3293;51.690;5.982;2023-04-26T08:14:33;9.07;;;4.20;;
6519;SDS011;3293;51.690;5.982;2023-04-26T08:19:34;10.93;;;4.30;;
6519;SDS011;3293;51.690;5.982;2023-04-26T08:24:34;6.37;;;3.70;;
6519;SDS011;3293;51.690;5.982;2023-04-26T08:29:34;9.57;;;4.60;;
6519;SDS011;3293;51.690;5.982;2023-04-26T08:34:35;8.37;;;4.67;;
6519;SDS011;3293;51.690;5.982;2023-04-26T08:39:35;10.00;;;4.63;;
6519;SDS011;3293;51.690;5.982;2023-04-26T08:44:35;8.30;;;4.00;;
6519;SDS011;3293;51.690;5.982;2023-04-26T08:49:39;13.17;;;3.70;;
6519;SDS011;3293;51.690;5.982;2023-04-26T08:54:43;7.30;;;4.10;;
6519;SDS011;3293;51.690;5.982;2023-04-26T08:59:45;11.97;;;3.43;;
6519;SDS011;3293;51.690;5.982;2023-04-26T09:04:46;6.65;;;2.90;;
6519;SDS011;3293;51.690;5.982;2023-04-26T09:09:48;6.65;;;3.10;;
6519;SDS011;3293;51.690;5.982;2023-04-26T09:14:49;6.27;;;3.10;;
6519;SDS011;3293;51.690;5.982;2023-04-26T09:19:50;9.27;;;3.83;;
6519;SDS011;3293;51.690;5.982;2023-04-26T09:24:50;5.27;;;3.13;;
6519;SDS011;3293;51.690;5.982;2023-04-26T09:35:05;6.90;;;3.50;;
6519;SDS011;3293;51.690;5.982;2023-04-26T09:40:08;6.60;;;3.80;;
6519;SDS011;3293;51.690;5.982;2023-04-26T09:45:16;6.57;;;3.37;;
6519;SDS011;3293;51.690;5.982;2023-04-26T09:50:29;9.13;;;3.33;;
6519;SDS011;3293;51.690;5.982;2023-04-26T09:55:30;8.90;;;3.50;;
6519;SDS011;3293;51.690;5.982;2023-04-26T10:00:30;4.23;;;2.60;;
6519;SDS011;3293;51.690;5.982;2023-04-26T10:05:31;6.13;;;3.07;;
6519;SDS011;3293;51.690;5.982;2023-04-26T10:10:31;4.70;;;3.10;;
6519;SDS011;3293;51.690;5.982;2023-04-26T10:15:33;6.43;;;2.80;;
6519;SDS011;3293;51.690;5.982;2023-04-26T10:20:34;5.13;;;3.10;;
6519;SDS011;3293;51.690;5.982;2023-04-26T10:25:39;7.13;;;2.83;;
6519;SDS011;3293;51.690;5.982;2023-04-26T10:30:53;5.67;;;3.30;;
6519;SDS011;3293;51.690;5.982;2023-04-26T10:36:13;3.60;;;2.83;;
6519;SDS011;3293;51.690;5.982;2023-04-26T10:41:30;3.13;;;2.83;;
6519;SDS011;3293;51.690;5.982;2023-04-26T10:46:38;5.10;;;3.60;;
6519;SDS011;3293;51.690;5.982;2023-04-26T10:51:39;7.90;;;4.07;;
6519;SDS011;3293;51.690;5.982;2023-04-26T11:01:40;9.97;;;4.33;;
6519;SDS011;3293;51.690;5.982;2023-04-26T11:06:50;4.40;;;3.43;;
6519;SDS011;3293;51.690;5.982;2023-04-26T11:11:51;4.93;;;3.47;;
6519;SDS011;3293;51.690;5.982;2023-04-26T11:16:52;5.77;;;3.10;;
6519;SDS011;3293;51.690;5.982;2023-04-26T11:21:52;5.73;;;3.90;;
6519;SDS011;3293;51.690;5.982;2023-04-26T11:26:52;8.00;;;3.10;;
6519;SDS011;3293;51.690;5.982;2023-04-26T11:31:53;8.67;;;3.23;;
6519;SDS011;3293;51.690;5.982;2023-04-26T11:36:54;6.13;;;2.80;;
6519;SDS011;3293;51.690;5.982;2023-04-26T11:41:55;3.13;;;2.63;;
6519;SDS011;3293;51.690;5.982;2023-04-26T11:47:07;4.37;;;2.90;;
6519;SDS011;3293;51.690;5.982;2023-04-26T11:52:07;5.87;;;2.90;;
6519;SDS011;3293;51.690;5.982;2023-04-26T11:57:11;5.60;;;3.60;;
6519;SDS011;3293;51.690;5.982;2023-04-26T12:02:12;5.43;;;3.20;;
6519;SDS011;3293;51.690;5.982;2023-04-26T12:07:12;5.93;;;3.80;;
6519;SDS011;3293;51.690;5.982;2023-04-26T12:12:17;3.73;;;3.13;;
6519;SDS011;3293;51.690;5.982;2023-04-26T12:17:17;5.07;;;3.23;;
6519;SDS011;3293;51.690;5.982;2023-04-26T12:22:19;8.27;;;3.20;;
6519;SDS011;3293;51.690;5.982;2023-04-26T12:27:20;7.23;;;3.60;;
6519;SDS011;3293;51.690;5.982;2023-04-26T12:32:20;5.77;;;3.53;;
6519;SDS011;3293;51.690;5.982;2023-04-26T12:37:20;8.87;;;3.53;;
6519;SDS011;3293;51.690;5.982;2023-04-26T12:42:20;8.73;;;3.70;;
6519;SDS011;3293;51.690;5.982;2023-04-26T12:47:20;6.47;;;3.07;;
6519;SDS011;3293;51.690;5.982;2023-04-26T12:52:20;4.70;;;3.07;;
6519;SDS011;3293;51.690;5.982;2023-04-26T12:57:21;5.53;;;3.30;;
6519;SDS011;3293;51.690;5.982;2023-04-26T13:02:21;8.77;;;3.53;;
6519;SDS011;3293;51.690;5.982;2023-04-26T13:07:21;9.90;;;5.30;;
6519;SDS011;3293;51.690;5.982;2023-04-26T13:12:21;5.97;;;3.40;;
6519;SDS011;3293;51.690;5.982;2023-04-26T13:17:22;7.00;;;3.60;;
6519;SDS011;3293;51.690;5.982;2023-04-26T13:22:23;4.20;;;3.20;;
6519;SDS011;3293;51.690;5.982;2023-04-26T13:27:24;3.77;;;3.20;;
6519;SDS011;3293;51.690;5.982;2023-04-26T13:32:24;6.27;;;4.17;;
6519;SDS011;3293;51.690;5.982;2023-04-26T13:37:24;6.30;;;4.00;;
6519;SDS011;3293;51.690;5.982;2023-04-26T13:42:25;6.23;;;3.87;;
6519;SDS011;3293;51.690;5.982;2023-04-26T13:47:26;9.20;;;4.10;;
6519;SDS011;3293;51.690;5.982;2023-04-26T13:52:26;5.83;;;3.90;;
6519;SDS011;3293;51.690;5.982;2023-04-26T13:57:26;7.13;;;3.70;;
6519;SDS011;3293;51.690;5.982;2023-04-26T14:02:26;4.73;;;3.40;;
6519;SDS011;3293;51.690;5.982;2023-04-26T14:07:26;6.53;;;4.67;;
6519;SDS011;3293;51.690;5.982;2023-04-26T14:12:27;7.40;;;3.67;;
6519;SDS011;3293;51.690;5.982;2023-04-26T14:17:28;5.50;;;3.93;;
6519;SDS011;3293;51.690;5.982;2023-04-26T14:22:28;5.87;;;4.07;;
6519;SDS011;3293;51.690;5.982;2023-04-26T14:27:28;6.70;;;3.63;;
6519;SDS011;3293;51.690;5.982;2023-04-26T14:32:28;3.97;;;3.60;;
6519;SDS011;3293;51.690;5.982;2023-04-26T14:37:28;8.07;;;4.10;;
6519;SDS011;3293;51.690;5.982;2023-04-26T14:42:28;4.30;;;3.90;;
6519;SDS011;3293;51.690;5.982;2023-04-26T14:47:28;5.90;;;4.63;;
6519;SDS011;3293;51.690;5.982;2023-04-26T14:52:29;8.83;;;5.00;;
6519;SDS011;3293;51.690;5.982;2023-04-26T14:57:33;6.90;;;3.83;;
6519;SDS011;3293;51.690;5.982;2023-04-26T15:02:33;10.80;;;4.13;;
6519;SDS011;3293;51.690;5.982;2023-04-26T15:07:33;7.60;;;4.37;;
6519;SDS011;3293;51.690;5.982;2023-04-26T15:12:33;7.27;;;4.23;;
6519;SDS011;3293;51.690;5.982;2023-04-26T15:17:35;5.10;;;4.03;;
6519;SDS011;3293;51.690;5.982;2023-04-26T15:22:35;6.97;;;4.33;;
6519;SDS011;3293;51.690;5.982;2023-04-26T15:27:35;5.20;;;4.03;;
6519;SDS011;3293;51.690;5.982;2023-04-26T15:32:35;9.10;;;4.07;;
6519;SDS011;3293;51.690;5.982;2023-04-26T15:37:35;6.10;;;4.83;;
6519;SDS011;3293;51.690;5.982;2023-04-26T15:42:36;5.70;;;3.97;;
6519;SDS011;3293;51.690;5.982;2023-04-26T15:47:36;6.07;;;3.90;;
6519;SDS011;3293;51.690;5.982;2023-04-26T15:52:37;7.87;;;4.30;;
6519;SDS011;3293;51.690;5.982;2023-04-26T15:57:39;7.33;;;4.47;;
6519;SDS011;3293;51.690;5.982;2023-04-26T16:02:40;9.23;;;4.50;;
6519;SDS011;3293;51.690;5.982;2023-04-26T16:07:43;11.30;;;5.67;;
6519;SDS011;3293;51.690;5.982;2023-04-26T16:12:43;4.83;;;4.30;;
6519;SDS011;3293;51.690;5.982;2023-04-26T16:17:43;6.50;;;5.03;;
6519;SDS011;3293;51.690;5.982;2023-04-26T16:22:43;5.53;;;3.70;;
6519;SDS011;3293;51.690;5.982;2023-04-26T16:27:43;8.63;;;4.57;;
6519;SDS011;3293;51.690;5.982;2023-04-26T16:32:43;6.00;;;4.10;;
6519;SDS011;3293;51.690;5.982;2023-04-26T16:37:43;6.37;;;4.20;;
6519;SDS011;3293;51.690;5.982;2023-04-26T16:42:44;5.00;;;4.00;;
6519;SDS011;3293;51.690;5.982;2023-04-26T16:47:44;6.43;;;4.47;;
6519;SDS011;3293;51.690;5.982;2023-04-26T16:52:45;4.70;;;4.10;;
6519;SDS011;3293;51.690;5.982;2023-04-26T16:57:45;5.30;;;3.83;;
6519;SDS011;3293;51.690;5.982;2023-04-26T17:02:47;7.47;;;4.10;;
6519;SDS011;3293;51.690;5.982;2023-04-26T17:07:48;5.73;;;4.23;;
6519;SDS011;3293;51.690;5.982;2023-04-26T17:12:49;9.07;;;5.00;;
6519;SDS011;3293;51.690;5.982;2023-04-26T17:17:49;6.33;;;4.23;;
6519;SDS011;3293;51.690;5.982;2023-04-26T17:22:49;6.30;;;4.10;;
6519;SDS011;3293;51.690;5.982;2023-04-26T17:27:50;6.07;;;3.97;;
6519;SDS011;3293;51.690;5.982;2023-04-26T17:32:51;7.50;;;4.23;;
6519;SDS011;3293;51.690;5.982;2023-04-26T17:37:51;7.67;;;4.47;;
6519;SDS011;3293;51.690;5.982;2023-04-26T17:42:51;7.40;;;4.00;;
6519;SDS011;3293;51.690;5.982;2023-04-26T17:47:51;9.03;;;4.03;;
6519;SDS011;3293;51.690;5.982;2023-04-26T17:52:51;5.53;;;3.77;;
6519;SDS011;3293;51.690;5.982;2023-04-26T17:57:52;6.97;;;4.60;;
6519;SDS011;3293;51.690;5.982;2023-04-26T18:02:52;5.03;;;4.53;;
6519;SDS011;3293;51.690;5.982;2023-04-26T18:07:52;6.43;;;4.00;;
6519;SDS011;3293;51.690;5.982;2023-04-26T18:12:52;7.73;;;4.90;;
6519;SDS011;3293;51.690;5.982;2023-04-26T18:17:52;9.77;;;6.40;;
6519;SDS011;3293;51.690;5.982;2023-04-26T18:22:52;12.37;;;7.20;;
6519;SDS011;3293;51.690;5.982;2023-04-26T18:27:52;7.10;;;6.20;;
6519;SDS011;3293;51.690;5.982;2023-04-26T18:32:53;10.30;;;4.60;;
6519;SDS011;3293;51.690;5.982;2023-04-26T18:37:52;6.30;;;4.50;;
6519;SDS011;3293;51.690;5.982;2023-04-26T18:42:52;10.40;;;4.90;;
6519;SDS011;3293;51.690;5.982;2023-04-26T18:47:52;6.27;;;4.30;;
6519;SDS011;3293;51.690;5.982;2023-04-26T18:52:52;5.63;;;4.50;;
6519;SDS011;3293;51.690;5.982;2023-04-26T18:57:52;7.37;;;4.13;;
6519;SDS011;3293;51.690;5.982;2023-04-26T19:02:52;5.73;;;4.27;;
6519;SDS011;3293;51.690;5.982;2023-04-26T19:07:53;4.93;;;4.33;;
6519;SDS011;3293;51.690;5.982;2023-04-26T19:12:53;8.67;;;4.20;;
6519;SDS011;3293;51.690;5.982;2023-04-26T19:17:53;8.03;;;4.17;;
6519;SDS011;3293;51.690;5.982;2023-04-26T19:22:53;7.67;;;4.40;;
6519;SDS011;3293;51.690;5.982;2023-04-26T19:27:53;6.47;;;4.13;;
6519;SDS011;3293;51.690;5.982;2023-04-26T19:32:53;8.03;;;4.50;;
6519;SDS011;3293;51.690;5.982;2023-04-26T19:37:53;9.83;;;4.27;;
6519;SDS011;3293;51.690;5.982;2023-04-26T19:42:52;10.97;;;4.73;;
6519;SDS011;3293;51.690;5.982;2023-04-26T19:47:52;6.60;;;4.30;;
6519;SDS011;3293;51.690;5.982;2023-04-26T19:52:53;7.07;;;4.90;;
6519;SDS011;3293;51.690;5.982;2023-04-26T19:57:53;5.87;;;3.90;;
6519;SDS011;3293;51.690;5.982;2023-04-26T20:02:53;7.20;;;4.70;;
6519;SDS011;3293;51.690;5.982;2023-04-26T20:07:53;6.90;;;4.50;;
6519;SDS011;3293;51.690;5.982;2023-04-26T20:12:54;6.63;;;4.60;;
6519;SDS011;3293;51.690;5.982;2023-04-26T20:17:54;6.73;;;5.63;;
6519;SDS011;3293;51.690;5.982;2023-04-26T20:22:54;7.83;;;5.53;;
6519;SDS011;3293;51.690;5.982;2023-04-26T20:27:53;7.60;;;4.87;;
6519;SDS011;3293;51.690;5.982;2023-04-26T20:32:55;8.70;;;4.83;;
6519;SDS011;3293;51.690;5.982;2023-04-26T20:37:55;6.87;;;4.93;;
6519;SDS011;3293;51.690;5.982;2023-04-26T20:42:54;9.27;;;5.73;;
6519;SDS011;3293;51.690;5.982;2023-04-26T20:47:54;9.20;;;5.13;;
6519;SDS011;3293;51.690;5.982;2023-04-26T20:52:54;13.30;;;6.80;;
6519;SDS011;3293;51.690;5.982;2023-04-26T20:57:54;9.40;;;5.97;;
6519;SDS011;3293;51.690;5.982;2023-04-26T21:02:54;8.47;;;5.60;;
6519;SDS011;3293;51.690;5.982;2023-04-26T21:07:54;8.60;;;4.73;;
6519;SDS011;3293;51.690;5.982;2023-04-26T21:12:54;7.83;;;4.83;;
6519;SDS011;3293;51.690;5.982;2023-04-26T21:17:54;5.63;;;4.80;;
6519;SDS011;3293;51.690;5.982;2023-04-26T21:22:54;5.90;;;4.93;;
6519;SDS011;3293;51.690;5.982;2023-04-26T21:27:54;8.47;;;5.50;;
6519;SDS011;3293;51.690;5.982;2023-04-26T21:32:56;8.20;;;4.90;;
6519;SDS011;3293;51.690;5.982;2023-04-26T21:37:56;6.23;;;4.87;;
6519;SDS011;3293;51.690;5.982;2023-04-26T21:42:56;7.30;;;5.33;;
6519;SDS011;3293;51.690;5.982;2023-04-26T21:47:56;10.17;;;5.33;;
6519;SDS011;3293;51.690;5.982;2023-04-26T21:52:57;6.40;;;5.03;;
6519;SDS011;3293;51.690;5.982;2023-04-26T21:57:58;8.03;;;5.23;;
6519;SDS011;3293;51.690;5.982;2023-04-26T22:02:58;6.70;;;5.00;;
6519;SDS011;3293;51.690;5.982;2023-04-26T22:07:58;5.23;;;4.73;;
6519;SDS011;3293;51.690;5.982;2023-04-26T22:12:58;9.07;;;6.03;;
6519;SDS011;3293;51.690;5.982;2023-04-26T22:17:58;7.70;;;5.80;;
6519;SDS011;3293;51.690;5.982;2023-04-26T22:22:58;8.13;;;5.53;;
6519;SDS011;3293;51.690;5.982;2023-04-26T22:27:58;8.43;;;6.03;;
6519;SDS011;3293;51.690;5.982;2023-04-26T22:32:57;8.67;;;6.20;;
6519;SDS011;3293;51.690;5.982;2023-04-26T22:37:57;8.57;;;6.33;;
6519;SDS011;3293;51.690;5.982;2023-04-26T22:42:57;9.20;;;5.80;;
6519;SDS011;3293;51.690;5.982;2023-04-26T22:47:57;8.37;;;6.30;;
6519;SDS011;3293;51.690;5.982;2023-04-26T22:52:57;15.37;;;7.13;;
6519;SDS011;3293;51.690;5.982;2023-04-26T22:57:57;11.00;;;6.23;;
6519;SDS011;3293;51.690;5.982;2023-04-26T23:02:57;9.47;;;6.13;;
6519;SDS011;3293;51.690;5.982;2023-04-26T23:07:58;8.20;;;5.87;;
6519;SDS011;3293;51.690;5.982;2023-04-26T23:12:59;14.37;;;6.63;;
6519;SDS011;3293;51.690;5.982;2023-04-26T23:17:59;9.60;;;6.80;;
6519;SDS011;3293;51.690;5.982;2023-04-26T23:22:59;12.63;;;6.97;;
6519;SDS011;3293;51.690;5.982;2023-04-26T23:27:59;12.23;;;6.30;;
6519;SDS011;3293;51.690;5.982;2023-04-26T23:32:59;12.10;;;6.57;;
6519;SDS011;3293;51.690;5.982;2023-04-26T23:37:59;7.20;;;5.87;;
6519;SDS011;3293;51.690;5.982;2023-04-26T23:42:59;11.87;;;6.37;;
6519;SDS011;3293;51.690;5.982;2023-04-26T23:47:59;6.90;;;6.20;;
6519;SDS011;3293;51.690;5.982;2023-04-26T23:53:00;10.50;;;6.50;;
6519;SDS011;3293;51.690;5.982;2023-04-26T23:58:00;12.10;;;6.87;;
